createdAt,value
2022-12-18T00:01:24.884Z,1.76
2022-12-18T00:03:53.168Z,1.44
2022-12-18T00:06:21.338Z,1.14
2022-12-18T00:08:48.919Z,0.69
2022-12-18T00:11:21.641Z,1.79
2022-12-18T00:13:49.543Z,1.60
2022-12-18T00:16:19.455Z,2.05
2022-12-18T00:18:46.165Z,1.95
2022-12-18T00:21:13.824Z,1.48
2022-12-18T00:23:43.415Z,1.82
2022-12-18T00:26:36.474Z,1.49
2022-12-18T00:29:06.937Z,1.52
2022-12-18T00:31:34.699Z,2.11
2022-12-18T00:34:01.893Z,1.93
2022-12-18T00:36:32.201Z,2.09
2022-12-18T00:39:01.236Z,2.40
2022-12-18T00:41:28.965Z,2.24
2022-12-18T00:43:56.565Z,2.46
2022-12-18T00:46:23.156Z,2.26
2022-12-18T00:48:49.778Z,2.78
2022-12-18T00:51:16.385Z,3.00
2022-12-18T00:53:42.984Z,2.72
2022-12-18T00:56:09.644Z,3.40
2022-12-18T00:58:37.652Z,3.78
2022-12-18T01:01:08.202Z,4.04
2022-12-18T01:03:34.971Z,4.34
2022-12-18T01:06:10.465Z,4.33
2022-12-18T01:08:37.258Z,4.51
2022-12-18T01:11:14.478Z,4.46
2022-12-18T01:13:41.482Z,4.57
2022-12-18T01:16:09.659Z,3.77
2022-12-18T01:18:36.891Z,3.80
2022-12-18T01:21:08.729Z,3.57
2022-12-18T01:23:36.584Z,3.21
2022-12-18T01:26:26.271Z,2.94
2022-12-18T01:28:54.756Z,3.38
2022-12-18T01:31:28.584Z,3.39
2022-12-18T01:33:56.796Z,2.89
2022-12-18T01:36:27.348Z,3.11
2022-12-18T01:38:55.230Z,2.87
2022-12-18T01:41:24.720Z,2.50
2022-12-18T01:43:58.964Z,2.37
2022-12-18T01:46:27.870Z,2.71
2022-12-18T01:49:03.121Z,2.69
2022-12-18T01:51:31.611Z,2.14
2022-12-18T01:54:00.262Z,1.97
2022-12-18T01:56:27.209Z,2.40
2022-12-18T01:59:01.981Z,2.63
2022-12-18T02:01:32.507Z,2.41
2022-12-18T02:04:26.645Z,2.27
2022-12-18T02:07:25.789Z,1.99
2022-12-18T02:09:59.949Z,2.59
2022-12-18T02:12:42.816Z,2.48
2022-12-18T02:15:28.004Z,2.89
2022-12-18T02:18:15.419Z,2.69
2022-12-18T02:20:54.332Z,2.67
2022-12-18T02:23:46.701Z,2.67
2022-12-18T02:26:38.689Z,2.53
2022-12-18T02:29:24.994Z,2.83
2022-12-18T02:31:59.156Z,2.64
2022-12-18T02:34:30.881Z,2.79
2022-12-18T02:37:03.237Z,2.59
2022-12-18T02:39:33.343Z,2.96
2022-12-18T02:42:01.239Z,2.70
2022-12-18T02:44:27.836Z,2.41
2022-12-18T02:46:55.081Z,2.76
2022-12-18T02:49:21.624Z,2.70
2022-12-18T02:52:02.648Z,2.89
2022-12-18T02:54:44.013Z,2.41
2022-12-18T02:57:51.388Z,2.44
2022-12-18T03:00:45.028Z,2.55
2022-12-18T03:03:14.985Z,3.14
2022-12-18T03:05:49.002Z,3.34
2022-12-18T03:08:22.533Z,3.39
2022-12-18T03:11:10.719Z,2.84
2022-12-18T03:13:59.789Z,2.96
2022-12-18T03:16:32.166Z,2.89
2022-12-18T03:19:15.032Z,3.02
2022-12-18T03:21:50.361Z,2.48
2022-12-18T03:24:19.811Z,2.36
2022-12-18T03:26:53.962Z,1.50
2022-12-18T03:29:30.765Z,2.30
2022-12-18T03:32:06.972Z,2.55
2022-12-18T03:34:37.742Z,2.78
2022-12-18T03:37:06.104Z,2.82
2022-12-18T03:39:33.666Z,2.24
2022-12-18T03:42:16.952Z,2.01
2022-12-18T03:45:08.948Z,1.33
2022-12-18T03:47:54.017Z,1.23
2022-12-18T03:50:38.209Z,0.90
2022-12-18T03:53:23.880Z,1.32
2022-12-18T03:55:52.920Z,1.37
2022-12-18T03:58:25.608Z,1.03
2022-12-18T04:00:57.369Z,0.59
2022-12-18T04:03:26.929Z,0.84
2022-12-18T04:05:56.543Z,1.25
2022-12-18T04:08:25.689Z,1.17
2022-12-18T04:10:52.658Z,1.52
2022-12-18T04:13:39.982Z,2.39
2022-12-18T04:16:28.493Z,1.52
2022-12-18T04:18:55.403Z,2.05
2022-12-18T04:21:22.073Z,2.25
2022-12-18T04:23:50.701Z,1.60
2022-12-18T04:26:17.453Z,1.21
2022-12-18T04:28:44.123Z,1.76
2022-12-18T04:31:10.927Z,1.67
2022-12-18T04:33:37.994Z,1.83
2022-12-18T04:36:05.488Z,1.40
2022-12-18T04:38:32.235Z,1.13
2022-12-18T04:40:59.300Z,1.64
2022-12-18T04:43:27.166Z,1.08
2022-12-18T04:45:53.946Z,0.78
2022-12-18T04:48:21.579Z,0.71
2022-12-18T04:50:48.658Z,0.99
2022-12-18T04:53:15.283Z,1.20
2022-12-18T04:55:41.913Z,1.28
2022-12-18T04:58:08.539Z,1.55
2022-12-18T05:00:36.418Z,1.58
2022-12-18T05:03:03.886Z,1.58
2022-12-18T05:05:31.849Z,1.72
2022-12-18T05:07:58.684Z,2.15
2022-12-18T05:10:25.336Z,2.64
2022-12-18T05:12:51.943Z,2.83
2022-12-18T05:15:18.546Z,2.91
2022-12-18T05:17:45.124Z,2.63
2022-12-18T05:20:11.730Z,3.21
2022-12-18T05:22:38.395Z,3.45
2022-12-18T05:25:05.406Z,2.41
2022-12-18T05:27:31.995Z,2.85
2022-12-18T05:29:58.617Z,1.66
2022-12-18T05:32:25.252Z,2.04
2022-12-18T05:34:51.853Z,2.28
2022-12-18T05:37:18.441Z,1.58
2022-12-18T05:39:45.196Z,1.54
2022-12-18T05:42:11.850Z,1.78
2022-12-18T05:44:38.497Z,1.94
2022-12-18T05:47:05.271Z,1.65
2022-12-18T05:49:31.910Z,1.20
2022-12-18T05:51:58.568Z,1.88
2022-12-18T05:54:25.164Z,2.18
2022-12-18T05:56:51.776Z,2.62
2022-12-18T05:59:18.461Z,2.27
2022-12-18T06:01:45.201Z,2.41
2022-12-18T06:04:11.964Z,2.81
2022-12-18T06:06:38.673Z,3.32
2022-12-18T06:09:05.727Z,3.10
2022-12-18T06:11:33.078Z,3.04
2022-12-18T06:14:00.290Z,2.92
2022-12-18T06:16:29.231Z,3.33
2022-12-18T06:19:02.676Z,3.18
2022-12-18T06:21:29.997Z,2.98
2022-12-18T06:23:56.901Z,2.97
2022-12-18T06:26:28.089Z,2.63
2022-12-18T06:28:55.429Z,2.17
2022-12-18T06:31:22.078Z,1.88
2022-12-18T06:33:48.738Z,1.72
2022-12-18T06:36:15.369Z,2.47
2022-12-18T06:38:43.825Z,2.23
2022-12-18T06:41:11.528Z,1.91
2022-12-18T06:43:38.893Z,2.11
2022-12-18T06:46:06.717Z,2.50
2022-12-18T06:48:34.160Z,2.20
2022-12-18T06:51:01.265Z,2.67
2022-12-18T06:53:28.429Z,3.10
2022-12-18T06:56:09.469Z,3.20
2022-12-18T06:58:36.861Z,3.25
2022-12-18T07:01:06.524Z,2.95
2022-12-18T07:03:33.407Z,3.16
2022-12-18T07:06:00.092Z,2.80
2022-12-18T07:08:27.090Z,2.55
2022-12-18T07:10:56.300Z,2.79
2022-12-18T07:13:23.484Z,2.47
2022-12-18T07:15:50.760Z,2.26
2022-12-18T07:18:17.409Z,3.04
2022-12-18T07:20:44.004Z,3.34
2022-12-18T07:23:10.631Z,3.63
2022-12-18T07:25:38.096Z,3.93
2022-12-18T07:28:05.301Z,3.55
2022-12-18T07:30:32.216Z,3.13
2022-12-18T07:32:58.849Z,3.37
2022-12-18T07:35:25.646Z,2.84
2022-12-18T07:37:52.331Z,2.70
2022-12-18T07:40:19.061Z,2.65
2022-12-18T07:42:45.758Z,3.29
2022-12-18T07:45:12.392Z,3.71
2022-12-18T07:47:39.050Z,4.20
2022-12-18T07:50:06.561Z,4.30
2022-12-18T07:52:33.221Z,4.47
2022-12-18T07:55:00.056Z,4.20
2022-12-18T07:57:49.369Z,4.49
2022-12-18T08:00:13.955Z,4.41
2022-12-18T08:02:40.713Z,4.53
2022-12-18T08:05:09.336Z,4.76
2022-12-18T08:07:35.935Z,4.65
2022-12-18T08:10:02.681Z,4.05
2022-12-18T08:12:30.139Z,4.40
2022-12-18T08:14:56.729Z,4.62
2022-12-18T08:17:23.339Z,3.93
2022-12-18T08:19:50.226Z,4.02
2022-12-18T08:22:16.922Z,4.36
2022-12-18T08:24:43.766Z,4.63
2022-12-18T08:27:28.980Z,4.90
2022-12-18T08:29:56.934Z,4.92
2022-12-18T08:32:24.054Z,4.79
2022-12-18T08:34:50.764Z,3.96
2022-12-18T08:37:17.369Z,3.85
2022-12-18T08:39:45.081Z,4.40
2022-12-18T08:42:11.680Z,4.13
2022-12-18T08:44:38.332Z,4.81
2022-12-18T08:47:06.351Z,5.19
2022-12-18T08:49:33.800Z,5.39
2022-12-18T08:52:00.469Z,4.96
2022-12-18T08:54:27.437Z,5.11
2022-12-18T08:56:54.081Z,5.07
2022-12-18T08:59:20.834Z,4.65
2022-12-18T09:01:48.674Z,4.93
2022-12-18T09:04:15.930Z,5.44
2022-12-18T09:06:42.523Z,5.44
2022-12-18T09:09:10.645Z,4.77
2022-12-18T09:11:37.270Z,4.67
2022-12-18T09:14:04.119Z,4.31
2022-12-18T09:16:33.120Z,4.22
2022-12-18T09:19:00.316Z,3.14
2022-12-18T09:21:29.696Z,3.68
2022-12-18T09:23:57.059Z,4.47
2022-12-18T09:26:25.971Z,5.03
2022-12-18T09:28:52.855Z,4.68
2022-12-18T09:31:23.023Z,4.44
2022-12-18T09:33:49.649Z,4.76
2022-12-18T09:36:18.640Z,5.26
2022-12-18T09:38:45.752Z,5.27
2022-12-18T09:41:36.935Z,5.60
2022-12-18T09:44:19.463Z,5.34
2022-12-18T09:46:59.036Z,5.07
2022-12-18T09:49:31.604Z,5.00
2022-12-18T09:52:00.786Z,4.30
2022-12-18T09:54:36.563Z,4.56
2022-12-18T09:57:03.462Z,4.28
2022-12-18T09:59:39.890Z,4.89
2022-12-18T10:02:21.795Z,3.40
2022-12-18T10:05:04.746Z,3.89
2022-12-18T10:07:51.641Z,3.76
2022-12-18T10:10:24.474Z,3.46
2022-12-18T10:13:21.776Z,4.41
2022-12-18T10:16:28.331Z,4.18
2022-12-18T10:19:15.973Z,4.06
2022-12-18T10:21:58.729Z,3.69
2022-12-18T10:24:43.279Z,4.39
2022-12-18T10:27:25.160Z,4.35
2022-12-18T10:29:52.911Z,4.33
2022-12-18T10:32:29.213Z,4.80
2022-12-18T10:35:00.834Z,4.78
2022-12-18T10:37:30.374Z,5.27
2022-12-18T10:40:21.903Z,5.32
2022-12-18T10:43:27.533Z,5.46
2022-12-18T10:46:16.905Z,5.61
2022-12-18T10:48:49.368Z,5.50
2022-12-18T10:51:27.127Z,4.74
2022-12-18T10:54:07.593Z,4.69
2022-12-18T10:56:37.722Z,4.43
2022-12-18T10:59:10.379Z,4.22
2022-12-18T11:01:52.669Z,3.97
2022-12-18T11:04:32.260Z,4.01
2022-12-18T11:07:00.218Z,4.51
2022-12-18T11:09:32.513Z,4.62
2022-12-18T11:12:06.842Z,4.58
2022-12-18T11:14:46.814Z,4.57
2022-12-18T11:17:33.142Z,4.91
2022-12-18T11:20:07.678Z,5.32
2022-12-18T11:22:38.506Z,4.88
2022-12-18T11:25:33.429Z,5.24
2022-12-18T11:28:37.909Z,5.06
2022-12-18T11:31:24.899Z,5.05
2022-12-18T11:34:26.843Z,4.72
2022-12-18T11:36:46.800Z,5.22
2022-12-18T11:39:28.698Z,5.31
2022-12-18T11:42:20.468Z,5.77
2022-12-18T11:45:01.939Z,5.66
2022-12-18T11:47:44.659Z,5.12
2022-12-18T11:50:24.489Z,5.39
2022-12-18T11:52:56.564Z,5.51
2022-12-18T11:55:46.315Z,5.40
2022-12-18T11:58:48.792Z,4.83
2022-12-18T12:01:44.922Z,5.30
2022-12-18T12:04:28.299Z,5.53
2022-12-18T12:07:35.379Z,5.89
2022-12-18T12:10:27.165Z,5.77
2022-12-18T12:13:11.602Z,5.96
2022-12-18T12:15:56.575Z,5.85
2022-12-18T12:18:35.492Z,5.81
2022-12-18T12:21:08.172Z,5.74
2022-12-18T12:23:40.975Z,5.85
2022-12-18T12:26:24.146Z,5.78
2022-12-18T12:29:16.611Z,5.53
2022-12-18T12:31:59.461Z,5.25
2022-12-18T12:34:42.825Z,5.40
2022-12-18T12:37:24.418Z,5.48
2022-12-18T12:39:55.396Z,5.79
2022-12-18T12:42:39.636Z,6.01
2022-12-18T12:45:14.783Z,5.42
2022-12-18T12:47:45.459Z,5.37
2022-12-18T12:50:19.987Z,5.49
2022-12-18T12:52:56.628Z,5.91
2022-12-18T12:55:27.649Z,6.11
2022-12-18T12:58:02.684Z,6.15
2022-12-18T13:00:42.413Z,7.13
2022-12-18T13:03:33.929Z,7.62
2022-12-18T13:06:30.685Z,6.71
2022-12-18T13:09:01.233Z,6.72
2022-12-18T13:11:46.895Z,6.52
2022-12-18T13:14:24.249Z,6.44
2022-12-18T13:16:52.413Z,6.29
2022-12-18T13:19:26.512Z,6.19
2022-12-18T13:21:56.294Z,6.42
2022-12-18T13:24:31.374Z,6.48
2022-12-18T13:26:58.114Z,6.39
2022-12-18T13:29:43.143Z,6.21
2022-12-18T13:32:23.485Z,5.72
2022-12-18T13:35:19.094Z,4.95
2022-12-18T13:37:55.496Z,5.24
2022-12-18T13:40:47.867Z,5.66
2022-12-18T13:43:20.282Z,5.46
2022-12-18T13:46:03.155Z,4.86
2022-12-18T13:48:35.341Z,4.42
2022-12-18T13:51:01.953Z,4.59
2022-12-18T13:53:34.021Z,5.27
2022-12-18T13:56:01.086Z,5.26
2022-12-18T13:58:27.891Z,5.57
2022-12-18T14:00:55.136Z,5.54
2022-12-18T14:03:26.028Z,5.21
2022-12-18T14:06:01.147Z,4.43
2022-12-18T14:08:36.003Z,4.44
2022-12-18T14:11:06.476Z,5.28
2022-12-18T14:13:40.615Z,5.29
2022-12-18T14:16:12.250Z,5.61
2022-12-18T14:18:47.640Z,5.91
2022-12-18T14:21:21.891Z,5.93
2022-12-18T14:23:48.944Z,6.22
2022-12-18T14:26:25.886Z,6.45
2022-12-18T14:28:52.613Z,6.48
2022-12-18T14:31:25.893Z,5.39
2022-12-18T14:33:53.289Z,5.65
2022-12-18T14:36:27.526Z,5.56
2022-12-18T14:38:59.531Z,5.40
2022-12-18T14:41:27.553Z,5.74
2022-12-18T14:43:55.561Z,6.00
2022-12-18T14:46:29.151Z,6.09
2022-12-18T14:48:57.313Z,5.89
2022-12-18T14:51:27.316Z,5.22
2022-12-18T14:54:02.796Z,5.77
2022-12-18T14:56:36.335Z,6.05
2022-12-18T14:59:24.174Z,6.27
2022-12-18T15:02:10.344Z,6.43
2022-12-18T15:04:42.076Z,6.42
2022-12-18T15:07:15.622Z,6.35
2022-12-18T15:10:05.148Z,6.52
2022-12-18T15:12:39.868Z,6.35
2022-12-18T15:15:35.626Z,6.42
2022-12-18T15:18:06.114Z,5.76
2022-12-18T15:20:40.593Z,5.85
2022-12-18T15:23:15.690Z,6.15
2022-12-18T15:25:42.665Z,6.08
2022-12-18T15:28:30.216Z,6.01
2022-12-18T15:31:15.015Z,5.79
2022-12-18T15:33:53.341Z,5.94
2022-12-18T15:36:26.422Z,5.90
2022-12-18T15:39:04.632Z,5.46
2022-12-18T15:41:35.744Z,5.77
2022-12-18T15:44:04.251Z,5.81
2022-12-18T15:46:31.163Z,5.83
2022-12-18T15:49:02.189Z,5.79
2022-12-18T15:51:34.703Z,4.71
2022-12-18T15:54:05.053Z,5.17
2022-12-18T15:56:32.824Z,4.44
2022-12-18T15:59:01.188Z,4.74
2022-12-18T16:01:31.910Z,4.20
2022-12-18T16:03:58.685Z,4.01
2022-12-18T16:06:36.403Z,4.56
2022-12-18T16:09:12.382Z,4.63
2022-12-18T16:11:43.979Z,4.94
2022-12-18T16:14:25.068Z,5.09
2022-12-18T16:17:01.986Z,5.12
2022-12-18T16:19:29.947Z,5.23
2022-12-18T16:21:58.527Z,5.13
2022-12-18T16:24:27.766Z,5.25
2022-12-18T16:26:55.382Z,5.38
2022-12-18T16:29:22.252Z,5.32
2022-12-18T16:31:48.881Z,5.30
2022-12-18T16:34:28.760Z,5.52
2022-12-18T16:37:00.284Z,5.77
2022-12-18T16:39:31.808Z,5.74
2022-12-18T16:41:58.963Z,5.61
2022-12-18T16:44:26.904Z,5.83
2022-12-18T16:46:53.553Z,5.84
2022-12-18T16:49:20.542Z,5.23
2022-12-18T16:51:47.522Z,5.40
2022-12-18T16:54:18.864Z,5.75
2022-12-18T16:56:46.415Z,5.77
2022-12-18T16:59:13.130Z,5.56
2022-12-18T17:01:39.922Z,5.86
2022-12-18T17:04:08.175Z,5.21
2022-12-18T17:06:40.523Z,5.22
2022-12-18T17:09:11.680Z,4.93
2022-12-18T17:11:38.290Z,5.03
2022-12-18T17:14:10.500Z,5.20
2022-12-18T17:16:37.262Z,5.42
2022-12-18T17:19:05.469Z,4.57
2022-12-18T17:21:32.331Z,4.37
2022-12-18T17:24:02.092Z,4.07
2022-12-18T17:26:29.944Z,4.70
2022-12-18T17:28:58.296Z,4.96
2022-12-18T17:31:27.799Z,5.07
2022-12-18T17:33:54.936Z,5.15
2022-12-18T17:36:22.939Z,5.13
2022-12-18T17:38:55.004Z,5.69
2022-12-18T17:41:22.521Z,5.74
2022-12-18T17:44:00.610Z,5.85
2022-12-18T17:46:29.333Z,5.95
2022-12-18T17:48:57.313Z,5.62
2022-12-18T17:51:23.970Z,5.80
2022-12-18T17:53:50.614Z,5.55
2022-12-18T17:56:20.163Z,5.39
2022-12-18T17:58:47.239Z,5.19
2022-12-18T18:01:17.606Z,5.07
2022-12-18T18:03:45.562Z,4.95
2022-12-18T18:06:15.132Z,4.07
2022-12-18T18:08:42.100Z,4.58
2022-12-18T18:11:16.633Z,4.78
2022-12-18T18:13:47.222Z,4.93
2022-12-18T18:16:14.170Z,5.15
2022-12-18T18:18:40.840Z,5.38
2022-12-18T18:21:08.899Z,5.45
2022-12-18T18:23:36.191Z,5.65
2022-12-18T18:26:07.524Z,5.68
2022-12-18T18:28:34.976Z,5.81
2022-12-18T18:31:05.798Z,5.90
2022-12-18T18:33:33.231Z,5.63
2022-12-18T18:36:00.227Z,5.47
2022-12-18T18:38:27.194Z,5.76
2022-12-18T18:41:02.000Z,5.71
2022-12-18T18:43:29.786Z,5.68
2022-12-18T18:46:01.277Z,5.15
2022-12-18T18:48:33.170Z,5.37
2022-12-18T18:51:08.118Z,5.46
2022-12-18T18:53:39.648Z,5.43
2022-12-18T18:56:37.729Z,5.42
2022-12-18T18:58:57.286Z,5.25
2022-12-18T19:01:25.419Z,5.33
2022-12-18T19:03:53.582Z,5.56
2022-12-18T19:06:26.567Z,5.66
2022-12-18T19:08:55.349Z,5.86
2022-12-18T19:11:23.920Z,5.86
2022-12-18T19:13:50.520Z,4.75
2022-12-18T19:16:17.185Z,4.78
2022-12-18T19:18:44.551Z,3.90
2022-12-18T19:21:11.672Z,3.66
2022-12-18T19:23:38.318Z,4.03
2022-12-18T19:28:54.276Z,4.95
2022-12-18T19:31:25.440Z,5.38
2022-12-18T19:33:53.774Z,5.53
2022-12-18T19:36:26.813Z,5.77
2022-12-18T19:38:57.002Z,4.14
2022-12-18T19:41:25.529Z,4.38
2022-12-18T19:43:53.657Z,5.19
2022-12-18T19:46:23.023Z,5.05
2022-12-18T19:48:50.488Z,5.37
2022-12-18T19:51:20.679Z,5.78
2022-12-18T19:53:47.329Z,6.14
2022-12-18T19:56:18.599Z,6.10
2022-12-18T19:58:45.976Z,6.32
2022-12-18T20:01:17.947Z,6.31
2022-12-18T20:03:48.494Z,5.38
2022-12-18T20:06:35.032Z,5.57
2022-12-18T20:09:06.451Z,5.74
2022-12-18T20:11:41.397Z,5.70
2022-12-18T20:14:14.073Z,5.64
2022-12-18T20:16:41.964Z,5.95
2022-12-18T20:19:12.858Z,6.30
2022-12-18T20:21:40.416Z,6.47
2022-12-18T20:24:07.847Z,6.46
2022-12-18T20:26:34.625Z,5.79
2022-12-18T20:29:01.269Z,5.79
2022-12-18T20:31:27.926Z,6.35
2022-12-18T20:34:00.337Z,5.66
2022-12-18T20:36:29.511Z,4.90
2022-12-18T20:38:59.268Z,5.39
2022-12-18T20:41:36.426Z,5.74
2022-12-18T20:44:08.550Z,5.99
2022-12-18T20:46:50.130Z,6.26
2022-12-18T20:49:16.826Z,6.22
2022-12-18T20:51:43.525Z,6.15
2022-12-18T20:54:11.940Z,6.35
2022-12-18T20:56:38.946Z,6.52
2022-12-18T20:59:05.682Z,6.60
2022-12-18T21:01:32.663Z,6.51
2022-12-18T21:03:59.585Z,5.60
2022-12-18T21:06:26.385Z,5.89
2022-12-18T21:08:53.016Z,6.32
2022-12-18T21:11:19.586Z,6.22
2022-12-18T21:13:46.679Z,6.45
2022-12-18T21:16:13.315Z,6.64
2022-12-18T21:18:40.091Z,6.61
2022-12-18T21:21:06.809Z,6.62
2022-12-18T21:23:33.540Z,6.37
2022-12-18T21:26:16.044Z,6.28
2022-12-18T21:28:42.955Z,6.40
2022-12-18T21:31:09.643Z,6.63
2022-12-18T21:33:38.713Z,6.83
2022-12-18T21:36:07.009Z,6.75
2022-12-18T21:38:33.845Z,6.85
2022-12-18T21:41:00.417Z,6.70
2022-12-18T21:43:27.225Z,6.13
2022-12-18T21:45:53.911Z,6.17
2022-12-18T21:48:20.581Z,6.30
2022-12-18T21:50:47.176Z,6.46
2022-12-18T21:53:13.791Z,6.64
2022-12-18T21:55:40.377Z,6.88
2022-12-18T21:58:07.132Z,6.74
2022-12-18T22:00:33.741Z,6.70
2022-12-18T22:03:17.275Z,6.81
2022-12-18T22:05:45.850Z,6.91
2022-12-18T22:08:14.151Z,6.94
2022-12-18T22:10:41.177Z,6.83
2022-12-18T22:13:07.857Z,6.57
2022-12-18T22:15:34.589Z,6.75
2022-12-18T22:18:01.243Z,6.75
2022-12-18T22:20:29.274Z,7.01
2022-12-18T22:22:56.869Z,7.27
2022-12-18T22:25:23.531Z,7.18
2022-12-18T22:27:50.180Z,7.17
2022-12-18T22:30:16.858Z,6.90
2022-12-18T22:32:43.535Z,6.92
2022-12-18T22:35:15.630Z,7.02
2022-12-18T22:37:42.686Z,7.13
2022-12-18T22:40:23.888Z,7.02
2022-12-18T22:42:52.647Z,7.16
2022-12-18T22:45:20.149Z,7.24
2022-12-18T22:47:46.765Z,7.39
2022-12-18T22:50:14.004Z,7.13
2022-12-18T22:52:40.865Z,7.09
2022-12-18T22:55:07.810Z,7.12
2022-12-18T22:57:34.580Z,7.20
2022-12-18T23:00:02.171Z,7.31
2022-12-18T23:02:29.040Z,7.31
2022-12-18T23:04:55.975Z,7.26
2022-12-18T23:07:22.577Z,7.22
2022-12-18T23:09:50.519Z,6.93
2022-12-18T23:12:19.080Z,6.99
2022-12-18T23:14:46.000Z,6.80
2022-12-18T23:17:13.007Z,6.58
2022-12-18T23:19:44.039Z,6.83
2022-12-18T23:22:13.861Z,6.47
2022-12-18T23:24:40.510Z,6.69
2022-12-18T23:27:11.368Z,6.65
2022-12-18T23:29:39.406Z,6.45
2022-12-18T23:32:06.152Z,6.13
2022-12-18T23:34:32.768Z,6.34
2022-12-18T23:36:59.880Z,6.44
2022-12-18T23:39:29.304Z,6.43
2022-12-18T23:42:00.336Z,6.77
2022-12-18T23:44:27.692Z,6.42
2022-12-18T23:46:55.217Z,6.41
2022-12-18T23:49:22.351Z,5.65
2022-12-18T23:51:49.424Z,5.91
2022-12-18T23:54:16.051Z,5.44
2022-12-18T23:56:42.913Z,5.77
2022-12-18T23:59:09.718Z,6.23
